createdAt,value
2018-01-21T00:02:05.618Z,6.10
2018-01-21T00:04:33.055Z,10.13
2018-01-21T00:07:00.512Z,7.12
2018-01-21T00:09:27.959Z,7.35
2018-01-21T00:11:55.401Z,6.70
2018-01-21T00:14:22.839Z,7.23
2018-01-21T00:16:50.276Z,9.80
2018-01-21T00:19:17.946Z,14.27
2018-01-21T00:21:45.394Z,14.30
2018-01-21T00:24:12.840Z,13.30
2018-01-21T00:26:40.288Z,7.65
2018-01-21T00:29:07.745Z,37.17
2018-01-21T00:31:35.212Z,10.35
2018-01-21T00:34:02.680Z,17.95
2018-01-21T00:36:30.120Z,9.32
2018-01-21T00:38:57.560Z,15.88
2018-01-21T00:41:25.011Z,13.93
2018-01-21T00:43:52.470Z,7.80
2018-01-21T00:46:19.907Z,10.63
2018-01-21T00:48:47.344Z,10.82
2018-01-21T00:51:14.793Z,15.32
2018-01-21T00:53:42.239Z,17.58
2018-01-21T00:56:10.456Z,13.45
2018-01-21T00:58:37.919Z,37.17
2018-01-21T01:01:05.555Z,23.98
2018-01-21T01:03:33.000Z,13.55
2018-01-21T01:06:01.220Z,17.83
2018-01-21T01:08:28.680Z,19.42
2018-01-21T01:10:56.140Z,18.77
2018-01-21T01:13:23.599Z,19.55
2018-01-21T01:15:51.055Z,23.00
2018-01-21T01:18:18.509Z,21.40
2018-01-21T01:20:45.969Z,26.48
2018-01-21T01:23:13.624Z,19.60
2018-01-21T01:25:41.088Z,25.58
2018-01-21T01:28:08.556Z,21.85
2018-01-21T01:30:36.017Z,25.40
2018-01-21T01:33:03.484Z,24.00
2018-01-21T01:35:30.926Z,18.30
2018-01-21T01:37:58.394Z,19.48
2018-01-21T01:40:25.842Z,20.17
2018-01-21T01:42:53.291Z,22.98
2018-01-21T01:45:20.759Z,18.55
2018-01-21T01:47:48.226Z,15.68
2018-01-21T01:50:15.685Z,22.73
2018-01-21T01:52:43.129Z,21.17
2018-01-21T01:55:10.596Z,18.90
2018-01-21T01:57:38.044Z,24.00
2018-01-21T02:00:05.496Z,18.17
2018-01-21T02:02:32.957Z,25.67
2018-01-21T02:05:00.412Z,21.75
2018-01-21T02:07:27.869Z,23.65
2018-01-21T02:09:55.324Z,25.33
2018-01-21T02:12:22.775Z,30.08
2018-01-21T02:14:50.237Z,23.38
2018-01-21T02:17:17.691Z,25.62
2018-01-21T02:19:45.150Z,21.50
2018-01-21T02:22:12.629Z,20.50
2018-01-21T02:24:40.066Z,27.23
2018-01-21T02:27:07.535Z,24.20
2018-01-21T02:29:34.984Z,22.85
2018-01-21T02:32:02.448Z,29.95
2018-01-21T02:34:29.904Z,23.05
2018-01-21T02:36:57.364Z,19.60
2018-01-21T02:39:24.808Z,25.88
2018-01-21T02:41:52.264Z,17.85
2018-01-21T02:44:19.715Z,24.60
2018-01-21T02:46:47.177Z,28.15
2018-01-21T02:49:14.629Z,23.62
2018-01-21T02:51:42.081Z,24.80
2018-01-21T02:54:09.546Z,23.52
2018-01-21T02:56:37.001Z,26.15
2018-01-21T02:59:04.459Z,22.85
2018-01-21T03:01:31.912Z,25.88
2018-01-21T03:03:59.388Z,23.30
2018-01-21T03:06:26.840Z,23.75
2018-01-21T03:08:54.277Z,26.52
2018-01-21T03:11:21.736Z,31.77
2018-01-21T03:13:49.188Z,20.20
2018-01-21T03:16:16.637Z,26.00
2018-01-21T03:18:44.077Z,18.05
2018-01-21T03:21:11.531Z,22.08
2018-01-21T03:23:38.971Z,19.62
2018-01-21T03:26:07.201Z,24.35
2018-01-21T03:28:34.651Z,23.55
2018-01-21T03:31:02.097Z,24.75
2018-01-21T03:33:29.567Z,22.48
2018-01-21T03:35:57.230Z,22.20
2018-01-21T03:38:24.703Z,23.15
2018-01-21T03:40:52.176Z,22.20
2018-01-21T03:43:19.633Z,25.25
2018-01-21T03:45:47.119Z,24.00
2018-01-21T03:48:14.576Z,20.70
2018-01-21T03:50:42.016Z,21.62
2018-01-21T03:53:09.466Z,25.70
2018-01-21T03:55:36.933Z,22.77
2018-01-21T03:58:04.383Z,33.33
2018-01-21T04:00:31.832Z,27.90
2018-01-21T04:02:59.296Z,26.65
2018-01-21T04:05:26.768Z,26.12
2018-01-21T04:07:55.010Z,21.15
2018-01-21T04:10:22.448Z,19.35
2018-01-21T04:12:49.925Z,22.02
2018-01-21T04:15:17.392Z,24.80
2018-01-21T04:17:44.851Z,27.73
2018-01-21T04:20:12.356Z,27.20
2018-01-21T04:22:39.821Z,22.08
2018-01-21T04:25:07.291Z,26.65
2018-01-21T04:27:34.728Z,27.45
2018-01-21T04:30:02.192Z,20.30
2018-01-21T04:32:29.645Z,23.38
2018-01-21T04:34:57.097Z,19.58
2018-01-21T04:37:24.531Z,20.05
2018-01-21T04:39:52.776Z,20.48
2018-01-21T04:42:20.379Z,28.35
2018-01-21T04:44:47.820Z,22.20
2018-01-21T04:47:16.035Z,21.37
2018-01-21T04:49:43.506Z,18.65
2018-01-21T04:52:10.944Z,21.62
2018-01-21T04:54:38.383Z,23.55
2018-01-21T04:57:05.845Z,22.37
2018-01-21T04:59:33.284Z,19.12
2018-01-21T05:02:00.756Z,18.17
2018-01-21T05:04:28.217Z,16.83
2018-01-21T05:06:55.678Z,20.90
2018-01-21T05:09:23.141Z,17.52
2018-01-21T05:11:50.604Z,18.70
2018-01-21T05:14:18.484Z,18.25
2018-01-21T05:16:45.927Z,42.40
2018-01-21T05:19:13.370Z,18.60
2018-01-21T05:21:40.839Z,25.48
2018-01-21T05:24:08.296Z,25.75
2018-01-21T05:26:35.856Z,19.95
2018-01-21T05:29:03.315Z,19.92
2018-01-21T05:31:30.755Z,15.77
2018-01-21T05:33:58.207Z,17.08
2018-01-21T05:36:25.659Z,16.00
2018-01-21T05:38:53.140Z,15.73
2018-01-21T05:41:20.603Z,16.70
2018-01-21T05:43:48.056Z,17.20
2018-01-21T05:46:15.528Z,16.33
2018-01-21T05:48:42.968Z,20.02
2018-01-21T05:51:10.433Z,15.57
2018-01-21T05:53:37.880Z,20.37
2018-01-21T05:56:05.323Z,19.87
2018-01-21T05:58:32.776Z,12.68
2018-01-21T06:01:00.253Z,16.50
2018-01-21T06:03:27.688Z,13.00
2018-01-21T06:05:55.149Z,11.50
2018-01-21T06:08:22.580Z,12.00
2018-01-21T06:10:50.051Z,13.73
2018-01-21T06:13:17.501Z,16.75
2018-01-21T06:15:45.220Z,16.17
2018-01-21T06:18:12.647Z,16.10
2018-01-21T06:20:40.096Z,12.65
2018-01-21T06:23:08.310Z,16.42
2018-01-21T06:25:35.751Z,12.68
2018-01-21T06:28:03.210Z,13.75
2018-01-21T06:30:30.644Z,12.68
2018-01-21T06:32:58.108Z,15.85
2018-01-21T06:35:25.551Z,13.00
2018-01-21T06:37:53.016Z,16.40
2018-01-21T06:40:20.482Z,15.57
2018-01-21T06:42:47.916Z,14.05
2018-01-21T06:45:16.125Z,15.43
2018-01-21T06:47:43.570Z,8.57
2018-01-21T06:50:11.007Z,15.68
2018-01-21T06:52:38.464Z,13.68
2018-01-21T06:55:05.919Z,16.37
2018-01-21T06:57:33.363Z,13.07
2018-01-21T07:00:00.808Z,12.60
2018-01-21T07:02:28.263Z,12.35
2018-01-21T07:04:55.720Z,13.35
2018-01-21T07:07:23.439Z,13.40
2018-01-21T07:09:50.888Z,13.30
2018-01-21T07:12:18.323Z,14.38
2018-01-21T07:14:45.780Z,14.10
2018-01-21T07:17:14.180Z,13.10
2018-01-21T07:19:41.640Z,14.43
2018-01-21T07:22:09.096Z,15.32
2018-01-21T07:24:36.579Z,12.77
2018-01-21T07:27:04.012Z,14.10
2018-01-21T07:29:31.468Z,14.60
2018-01-21T07:31:58.905Z,9.40
2018-01-21T07:34:26.358Z,11.30
2018-01-21T07:36:53.800Z,11.60
2018-01-21T07:39:21.298Z,9.23
2018-01-21T07:41:48.740Z,8.48
2018-01-21T07:44:16.187Z,12.43
2018-01-21T07:46:43.644Z,9.23
2018-01-21T07:49:11.078Z,11.90
2018-01-21T07:51:38.525Z,7.72
2018-01-21T07:54:05.964Z,8.05
2018-01-21T07:56:33.403Z,9.35
2018-01-21T07:59:00.840Z,8.93
2018-01-21T08:01:29.040Z,8.05
2018-01-21T08:03:56.487Z,9.82
2018-01-21T08:06:23.919Z,8.68
2018-01-21T08:08:51.379Z,10.75
2018-01-21T08:11:18.838Z,6.75
2018-01-21T08:13:46.281Z,8.30
2018-01-21T08:16:13.739Z,8.38
2018-01-21T08:18:41.179Z,8.93
2018-01-21T08:21:08.626Z,8.82
2018-01-21T08:23:36.053Z,7.07
2018-01-21T08:26:03.508Z,6.40
2018-01-21T08:28:30.945Z,6.25
2018-01-21T08:30:58.393Z,7.32
2018-01-21T08:33:26.611Z,7.12
2018-01-21T08:35:59.625Z,7.00
2018-01-21T08:38:32.839Z,7.90
2018-01-21T08:41:05.843Z,7.55
2018-01-21T08:43:33.299Z,7.80
2018-01-21T08:46:00.740Z,7.72
2018-01-21T08:48:28.191Z,7.12
2018-01-21T08:50:55.633Z,8.82
2018-01-21T08:53:23.075Z,9.13
2018-01-21T08:55:50.550Z,7.95
2018-01-21T08:58:17.974Z,8.45
2018-01-21T09:00:45.408Z,8.38
2018-01-21T09:03:12.843Z,7.32
2018-01-21T09:05:41.063Z,7.35
2018-01-21T09:08:08.530Z,8.35
2018-01-21T09:10:35.940Z,8.25
2018-01-21T09:13:03.367Z,8.32
2018-01-21T09:15:30.803Z,6.15
2018-01-21T09:17:58.257Z,8.82
2018-01-21T09:20:25.686Z,6.22
2018-01-21T09:22:53.136Z,5.60
2018-01-21T09:25:20.588Z,7.85
2018-01-21T09:27:48.792Z,9.05
2018-01-21T09:30:16.232Z,7.20
2018-01-21T09:32:43.677Z,10.60
2018-01-21T09:35:11.881Z,7.57
2018-01-21T09:37:39.345Z,10.45
2018-01-21T09:40:06.784Z,8.93
2018-01-21T09:42:34.235Z,11.07
2018-01-21T09:45:01.680Z,9.63
2018-01-21T09:47:29.127Z,8.30
2018-01-21T09:49:56.585Z,9.73
2018-01-21T09:52:24.021Z,11.52
2018-01-21T09:54:51.468Z,7.30
2018-01-21T09:57:18.901Z,9.70
2018-01-21T09:59:46.349Z,11.77
2018-01-21T10:02:13.802Z,8.60
2018-01-21T10:04:41.241Z,10.48
2018-01-21T10:07:08.688Z,7.65
2018-01-21T10:09:36.118Z,9.43
2018-01-21T10:12:03.604Z,7.85
2018-01-21T10:14:31.043Z,9.05
2018-01-21T10:16:58.489Z,9.45
2018-01-21T10:19:25.924Z,6.90
2018-01-21T10:21:53.374Z,8.65
2018-01-21T10:24:20.826Z,7.10
2018-01-21T10:26:48.259Z,6.95
2018-01-21T10:29:15.716Z,8.35
2018-01-21T10:31:43.143Z,8.85
2018-01-21T10:34:11.369Z,8.50
2018-01-21T10:36:38.795Z,6.87
2018-01-21T10:39:06.248Z,6.25
2018-01-21T10:41:33.674Z,5.70
2018-01-21T10:44:01.145Z,5.30
2018-01-21T10:46:28.602Z,6.00
2018-01-21T10:48:56.021Z,6.15
2018-01-21T10:51:23.501Z,6.05
2018-01-21T10:53:50.944Z,5.78
2018-01-21T10:56:18.451Z,6.12
2018-01-21T10:58:45.885Z,5.10
2018-01-21T11:01:13.328Z,6.60
2018-01-21T11:03:40.788Z,6.55
2018-01-21T11:06:08.219Z,7.70
2018-01-21T11:08:35.680Z,8.00
2018-01-21T11:11:03.118Z,6.00
2018-01-21T11:13:30.564Z,4.78
2018-01-21T11:15:58.012Z,6.57
2018-01-21T11:18:25.552Z,7.00
2018-01-21T11:20:52.988Z,6.65
2018-01-21T11:23:20.442Z,6.40
2018-01-21T11:25:47.887Z,7.05
2018-01-21T11:28:15.340Z,5.65
2018-01-21T11:30:42.776Z,5.12
2018-01-21T11:33:10.219Z,5.72
2018-01-21T11:35:37.658Z,6.32
2018-01-21T11:38:05.120Z,5.22
2018-01-21T11:40:32.658Z,5.87
2018-01-21T11:43:00.093Z,5.15
2018-01-21T11:45:27.546Z,5.47
2018-01-21T11:47:54.983Z,6.47
2018-01-21T11:50:22.497Z,6.03
2018-01-21T11:52:49.908Z,6.97
2018-01-21T11:55:17.353Z,6.47
2018-01-21T11:57:44.801Z,5.30
2018-01-21T12:00:12.239Z,6.82
2018-01-21T12:02:39.791Z,5.50
2018-01-21T12:05:07.224Z,5.80
2018-01-21T12:07:34.676Z,5.80
2018-01-21T12:10:02.108Z,4.62
2018-01-21T12:12:29.537Z,6.17
2018-01-21T12:14:56.980Z,5.10
2018-01-21T12:17:24.412Z,5.33
2018-01-21T12:19:51.859Z,5.37
2018-01-21T12:22:19.292Z,5.47
2018-01-21T12:24:46.729Z,5.93
2018-01-21T12:27:14.160Z,6.45
2018-01-21T12:29:41.599Z,5.80
2018-01-21T12:32:09.032Z,6.60
2018-01-21T12:34:36.477Z,5.40
2018-01-21T12:37:03.914Z,6.87
2018-01-21T12:39:31.356Z,7.37
2018-01-21T12:41:58.791Z,5.53
2018-01-21T12:44:26.273Z,5.22
2018-01-21T12:46:53.705Z,7.20
2018-01-21T12:49:21.135Z,7.35
2018-01-21T12:51:48.594Z,7.03
2018-01-21T12:54:16.019Z,7.55
2018-01-21T12:56:43.447Z,6.70
2018-01-21T12:59:10.892Z,7.00
2018-01-21T13:01:39.097Z,8.10
2018-01-21T13:04:06.508Z,7.73
2018-01-21T13:06:33.976Z,7.55
2018-01-21T13:09:01.416Z,4.82
2018-01-21T13:11:28.868Z,7.10
2018-01-21T13:13:56.303Z,6.10
2018-01-21T13:16:23.761Z,5.67
2018-01-21T13:18:51.180Z,5.73
2018-01-21T13:21:18.625Z,4.80
2018-01-21T13:23:46.056Z,4.60
2018-01-21T13:26:13.492Z,5.00
2018-01-21T13:28:41.083Z,4.40
2018-01-21T13:31:08.529Z,3.90
2018-01-21T13:33:35.967Z,4.20
2018-01-21T13:36:03.411Z,4.40
2018-01-21T13:38:30.854Z,7.97
2018-01-21T13:40:58.276Z,4.80
2018-01-21T13:43:26.486Z,3.47
2018-01-21T13:45:53.944Z,4.00
2018-01-21T13:48:21.368Z,4.40
2018-01-21T13:50:48.858Z,3.60
2018-01-21T13:53:16.283Z,3.60
2018-01-21T13:55:43.727Z,4.37
2018-01-21T13:58:11.149Z,4.20
2018-01-21T14:00:38.605Z,4.53
2018-01-21T14:03:06.038Z,4.40
2018-01-21T14:05:33.481Z,5.07
2018-01-21T14:08:00.903Z,3.50
2018-01-21T14:10:29.114Z,5.77
2018-01-21T14:12:56.539Z,4.43
2018-01-21T14:15:23.995Z,4.40
2018-01-21T14:17:51.424Z,5.00
2018-01-21T14:20:18.873Z,4.80
2018-01-21T14:22:46.297Z,5.30
2018-01-21T14:25:13.739Z,4.83
2018-01-21T14:27:41.166Z,5.43
2018-01-21T14:30:08.666Z,6.50
2018-01-21T14:32:36.066Z,5.50
2018-01-21T14:35:03.701Z,7.62
2018-01-21T14:37:31.139Z,5.75
2018-01-21T14:39:58.575Z,5.07
2018-01-21T14:42:26.008Z,6.93
2018-01-21T14:44:53.452Z,6.40
2018-01-21T14:47:20.914Z,6.32
2018-01-21T14:49:48.359Z,6.05
2018-01-21T14:52:15.797Z,4.62
2018-01-21T14:54:43.255Z,7.28
2018-01-21T14:57:10.696Z,6.70
2018-01-21T14:59:38.147Z,6.85
2018-01-21T15:02:05.583Z,5.83
2018-01-21T15:04:33.816Z,7.15
2018-01-21T15:07:01.466Z,6.55
2018-01-21T15:09:28.884Z,8.40
2018-01-21T15:11:56.377Z,7.30
2018-01-21T15:14:23.779Z,7.20
2018-01-21T15:16:51.226Z,8.95
2018-01-21T15:19:18.811Z,7.47
2018-01-21T15:21:47.024Z,4.90
2018-01-21T15:24:14.477Z,5.35
2018-01-21T15:26:41.912Z,8.23
2018-01-21T15:29:09.363Z,8.88
2018-01-21T15:31:36.792Z,8.27
2018-01-21T15:34:04.244Z,10.05
2018-01-21T15:36:31.672Z,9.60
2018-01-21T15:38:59.129Z,8.13
2018-01-21T15:41:26.560Z,7.87
2018-01-21T15:43:54.000Z,7.95
2018-01-21T15:46:21.447Z,8.05
2018-01-21T15:48:48.883Z,7.30
2018-01-21T15:51:16.339Z,5.75
2018-01-21T15:53:43.784Z,7.47
2018-01-21T15:56:11.251Z,138.48
2018-01-21T15:58:38.708Z,87.30
2018-01-21T16:01:06.163Z,9.43
2018-01-21T16:03:33.641Z,7.30
2018-01-21T16:06:01.088Z,10.63
2018-01-21T16:08:28.516Z,7.90
2018-01-21T16:10:56.423Z,8.85
2018-01-21T16:13:23.866Z,7.90
2018-01-21T16:15:51.314Z,7.85
2018-01-21T16:18:18.757Z,5.72
2018-01-21T16:20:46.204Z,7.32
2018-01-21T16:23:13.648Z,6.82
2018-01-21T16:25:41.092Z,6.85
2018-01-21T16:28:08.574Z,8.70
2018-01-21T16:30:35.996Z,7.62
2018-01-21T16:33:03.441Z,7.05
2018-01-21T16:35:30.892Z,9.55
2018-01-21T16:38:10.163Z,9.57
2018-01-21T16:40:37.609Z,7.55
2018-01-21T16:43:05.058Z,11.00
2018-01-21T16:45:32.516Z,9.93
2018-01-21T16:47:59.952Z,8.10
2018-01-21T16:50:27.390Z,8.77
2018-01-21T16:52:54.823Z,9.63
2018-01-21T16:55:22.267Z,8.32
2018-01-21T16:57:49.714Z,7.18
2018-01-21T17:00:17.145Z,10.57
2018-01-21T17:02:45.384Z,8.50
2018-01-21T17:05:12.831Z,8.07
2018-01-21T17:07:41.084Z,9.77
2018-01-21T17:10:08.521Z,9.48
2018-01-21T17:12:36.745Z,10.27
2018-01-21T17:15:04.187Z,9.18
2018-01-21T17:17:31.624Z,8.40
2018-01-21T17:19:59.081Z,10.52
2018-01-21T17:22:26.527Z,9.32
2018-01-21T17:24:53.989Z,8.48
2018-01-21T17:27:21.428Z,7.90
2018-01-21T17:29:48.920Z,7.30
2018-01-21T17:32:16.367Z,9.35
2018-01-21T17:34:43.791Z,9.18
2018-01-21T17:37:11.239Z,7.15
2018-01-21T17:39:38.681Z,8.27
2018-01-21T17:42:06.125Z,8.75
2018-01-21T17:44:34.344Z,6.07
2018-01-21T17:47:01.785Z,9.50
2018-01-21T17:49:29.216Z,9.32
2018-01-21T17:51:56.840Z,6.45
2018-01-21T17:54:24.281Z,8.10
2018-01-21T17:56:51.743Z,9.45
2018-01-21T17:59:19.184Z,7.82
2018-01-21T18:01:46.649Z,9.02
2018-01-21T18:04:14.111Z,8.93
2018-01-21T18:06:41.548Z,7.72
2018-01-21T18:09:08.969Z,9.45
2018-01-21T18:11:36.419Z,9.40
2018-01-21T18:14:03.974Z,10.20
2018-01-21T18:16:31.424Z,9.00
2018-01-21T18:18:58.852Z,7.78
2018-01-21T18:21:27.079Z,10.02
2018-01-21T18:23:54.513Z,8.55
2018-01-21T18:26:21.944Z,9.82
2018-01-21T18:28:49.411Z,9.93
2018-01-21T18:31:16.859Z,9.52
2018-01-21T18:33:44.316Z,12.10
2018-01-21T18:36:11.743Z,9.70
2018-01-21T18:38:39.196Z,7.62
2018-01-21T18:41:06.629Z,6.90
2018-01-21T18:43:34.094Z,7.85
2018-01-21T18:46:02.293Z,8.77
2018-01-21T18:48:29.751Z,11.80
2018-01-21T18:50:57.216Z,10.98
2018-01-21T18:53:24.633Z,9.18
2018-01-21T18:55:52.116Z,10.90
2018-01-21T18:58:19.712Z,7.35
2018-01-21T19:00:47.162Z,8.40
2018-01-21T19:03:14.616Z,6.93
2018-01-21T19:05:42.059Z,12.02
2018-01-21T19:08:09.492Z,10.77
2018-01-21T19:10:36.935Z,8.13
2018-01-21T19:13:04.372Z,9.00
2018-01-21T19:15:31.832Z,7.93
2018-01-21T19:17:59.283Z,11.63
2018-01-21T19:20:26.858Z,11.12
2018-01-21T19:22:54.298Z,10.95
2018-01-21T19:25:21.808Z,8.32
2018-01-21T19:27:49.365Z,10.25
2018-01-21T19:30:16.791Z,11.12
2018-01-21T19:32:44.250Z,10.48
2018-01-21T19:35:11.694Z,8.98
2018-01-21T19:37:39.145Z,14.60
2018-01-21T19:40:06.618Z,10.85
2018-01-21T19:42:39.762Z,10.40
2018-01-21T19:45:07.215Z,9.00
2018-01-21T19:47:34.657Z,10.27
2018-01-21T19:50:02.113Z,9.18
2018-01-21T19:52:29.564Z,14.63
2018-01-21T19:54:58.630Z,9.85
2018-01-21T19:57:26.056Z,9.85
2018-01-21T19:59:53.522Z,11.07
2018-01-21T20:02:20.987Z,9.02
2018-01-21T20:04:48.393Z,9.13
2018-01-21T20:07:15.836Z,14.60
2018-01-21T20:09:43.292Z,11.15
2018-01-21T20:12:10.731Z,14.15
2018-01-21T20:14:38.188Z,13.75
2018-01-21T20:17:05.628Z,12.80
2018-01-21T20:19:33.102Z,13.15
2018-01-21T20:22:00.540Z,11.43
2018-01-21T20:24:28.003Z,11.55
2018-01-21T20:26:55.432Z,12.60
2018-01-21T20:29:23.660Z,11.88
2018-01-21T20:31:51.879Z,14.18
2018-01-21T20:34:20.112Z,12.00
2018-01-21T20:36:47.574Z,15.38
2018-01-21T20:39:15.062Z,11.20
2018-01-21T20:41:42.504Z,9.65
2018-01-21T20:44:09.970Z,15.00
2018-01-21T20:46:37.425Z,9.98
2018-01-21T20:49:04.874Z,12.57
2018-01-21T20:51:38.051Z,10.45
2018-01-21T20:54:11.126Z,12.65
2018-01-21T20:56:38.569Z,12.80
2018-01-21T20:59:06.036Z,12.13
2018-01-21T21:01:33.454Z,13.00
2018-01-21T21:04:00.908Z,14.70
2018-01-21T21:06:28.341Z,11.90
2018-01-21T21:08:55.852Z,14.55
2018-01-21T21:11:23.324Z,11.30
2018-01-21T21:13:50.765Z,11.80
2018-01-21T21:16:18.195Z,11.68
2018-01-21T21:18:45.648Z,12.65
2018-01-21T21:21:13.075Z,11.57
2018-01-21T21:23:40.527Z,10.32
2018-01-21T21:26:07.975Z,12.80
2018-01-21T21:28:35.447Z,13.15
2018-01-21T21:31:02.935Z,13.98
2018-01-21T21:33:30.384Z,13.35
2018-01-21T21:35:57.839Z,13.85
2018-01-21T21:38:25.276Z,16.70
2018-01-21T21:40:52.725Z,9.90
2018-01-21T21:43:20.172Z,14.23
2018-01-21T21:45:47.659Z,15.50
2018-01-21T21:48:15.103Z,11.98
2018-01-21T21:50:42.560Z,16.98
2018-01-21T21:53:09.996Z,12.52
2018-01-21T21:55:37.513Z,15.35
2018-01-21T21:58:05.755Z,11.05
2018-01-21T22:00:33.192Z,13.95
2018-01-21T22:03:00.642Z,12.10
2018-01-21T22:05:28.115Z,17.10
2018-01-21T22:07:55.549Z,11.50
2018-01-21T22:10:23.015Z,14.63
2018-01-21T22:12:50.452Z,11.95
2018-01-21T22:15:18.083Z,15.52
2018-01-21T22:17:45.535Z,14.30
2018-01-21T22:20:12.978Z,13.20
2018-01-21T22:22:40.428Z,12.37
2018-01-21T22:25:07.869Z,11.88
2018-01-21T22:27:35.325Z,13.73
2018-01-21T22:30:02.772Z,13.68
2018-01-21T22:32:30.223Z,14.15
2018-01-21T22:34:57.685Z,10.77
2018-01-21T22:37:25.144Z,11.45
2018-01-21T22:39:52.599Z,9.93
2018-01-21T22:42:20.037Z,9.98
2018-01-21T22:44:47.492Z,13.70
2018-01-21T22:47:14.942Z,11.50
2018-01-21T22:49:42.371Z,11.52
2018-01-21T22:52:09.828Z,15.90
2018-01-21T22:54:37.268Z,10.60
2018-01-21T22:57:04.711Z,12.13
2018-01-21T22:59:32.307Z,9.98
2018-01-21T23:01:59.760Z,9.85
2018-01-21T23:04:27.191Z,7.93
2018-01-21T23:06:54.653Z,11.23
2018-01-21T23:09:22.103Z,9.65
2018-01-21T23:11:49.564Z,11.85
2018-01-21T23:14:17.006Z,15.05
2018-01-21T23:16:44.462Z,11.95
2018-01-21T23:19:11.888Z,7.85
2018-01-21T23:21:39.451Z,12.35
2018-01-21T23:24:06.895Z,10.00
2018-01-21T23:26:34.336Z,7.55
2018-01-21T23:29:02.561Z,9.38
2018-01-21T23:31:30.002Z,9.75
2018-01-21T23:33:57.435Z,8.10
2018-01-21T23:36:24.883Z,8.25
2018-01-21T23:38:52.329Z,8.75
2018-01-21T23:41:19.760Z,7.12
2018-01-21T23:43:47.209Z,9.63
2018-01-21T23:46:14.641Z,7.20
2018-01-21T23:48:42.089Z,8.27
2018-01-21T23:51:09.525Z,7.53
2018-01-21T23:53:37.016Z,6.55
2018-01-21T23:56:04.442Z,8.90
2018-01-21T23:58:31.861Z,7.68
